createdAt,value
2023-05-14T00:00:33.282Z,100286.56
2023-05-14T00:01:36.060Z,100285.50
2023-05-14T00:02:37.861Z,100278.13
2023-05-14T00:03:42.075Z,100283.78
2023-05-14T00:04:43.822Z,100290.75
2023-05-14T00:05:46.477Z,100294.38
2023-05-14T00:06:48.185Z,100285.88
2023-05-14T00:07:50.952Z,100283.75
2023-05-14T00:08:52.648Z,100280.34
2023-05-14T00:09:55.358Z,100278.03
2023-05-14T00:10:57.070Z,100293.66
2023-05-14T00:12:00.004Z,100282.88
2023-05-14T00:13:01.838Z,100282.00
2023-05-14T00:14:04.554Z,100279.28
2023-05-14T00:15:07.454Z,100283.72
2023-05-14T00:16:10.370Z,100282.00
2023-05-14T00:17:12.103Z,100277.16
2023-05-14T00:18:14.804Z,100285.41
2023-05-14T00:19:18.042Z,100287.09
2023-05-14T00:20:21.127Z,100283.53
2023-05-14T00:21:22.978Z,100279.91
2023-05-14T00:22:25.687Z,100281.81
2023-05-14T00:23:27.479Z,100284.34
2023-05-14T00:24:30.172Z,100282.66
2023-05-14T00:25:32.017Z,100276.09
2023-05-14T00:26:34.750Z,100276.75
2023-05-14T00:27:37.769Z,100277.59
2023-05-14T00:28:40.553Z,100272.75
2023-05-14T00:29:42.250Z,100275.28
2023-05-14T00:30:45.473Z,100274.22
2023-05-14T00:31:47.285Z,100273.19
2023-05-14T00:32:50.068Z,100265.97
2023-05-14T00:33:51.794Z,100267.69
2023-05-14T00:34:55.874Z,100266.84
2023-05-14T00:35:57.630Z,100261.16
2023-05-14T00:37:00.303Z,100258.59
2023-05-14T00:38:02.388Z,100258.16
2023-05-14T00:39:05.349Z,100258.16
2023-05-14T00:40:08.673Z,100251.66
2023-05-14T00:41:11.430Z,100257.16
2023-05-14T00:42:13.187Z,100255.91
2023-05-14T00:43:15.845Z,100253.97
2023-05-14T00:44:17.566Z,100249.13
2023-05-14T00:45:20.650Z,100247.22
2023-05-14T00:46:22.710Z,100249.97
2023-05-14T00:47:25.802Z,100248.09
2023-05-14T00:48:27.913Z,100248.94
2023-05-14T00:49:30.749Z,100247.22
2023-05-14T00:50:34.646Z,100248.94
2023-05-14T00:51:37.987Z,100249.78
2023-05-14T00:52:40.725Z,100248.69
2023-05-14T00:53:43.628Z,100248.69
2023-05-14T00:54:47.170Z,100254.00
2023-05-14T00:55:51.044Z,100245.75
2023-05-14T00:56:53.152Z,100241.31
2023-05-14T00:57:57.409Z,100243.84
2023-05-14T00:58:59.158Z,100241.97
2023-05-14T01:00:02.357Z,100242.56
2023-05-14T01:01:04.328Z,100245.31
2023-05-14T01:02:07.381Z,100247.88
2023-05-14T01:03:09.568Z,100239.81
2023-05-14T01:04:12.831Z,100242.56
2023-05-14T01:05:14.684Z,100246.16
2023-05-14T01:06:22.905Z,100246.16
2023-05-14T01:07:29.458Z,100239.81
2023-05-14T01:08:37.872Z,100242.56
2023-05-14T01:09:43.419Z,100244.47
2023-05-14T01:10:51.682Z,100244.69
2023-05-14T01:11:59.854Z,100245.94
2023-05-14T01:13:05.795Z,100241.31
2023-05-14T01:14:17.230Z,100239.38
2023-05-14T01:15:22.759Z,100249.28
2023-05-14T01:16:27.205Z,100242.50
2023-05-14T01:17:30.995Z,100242.28
2023-05-14T01:18:32.833Z,100244.59
2023-05-14T01:19:38.970Z,100248.59
2023-05-14T01:20:40.796Z,100251.34
2023-05-14T01:21:45.624Z,100242.50
2023-05-14T01:22:47.332Z,100245.22
2023-05-14T01:23:50.026Z,100250.06
2023-05-14T01:24:51.744Z,100243.72
2023-05-14T01:25:54.485Z,100245.63
2023-05-14T01:27:02.032Z,100242.88
2023-05-14T01:28:10.659Z,100246.66
2023-05-14T01:29:17.136Z,100243.09
2023-05-14T01:30:23.344Z,100243.94
2023-05-14T01:31:28.010Z,100245.00
2023-05-14T01:32:31.649Z,100244.16
2023-05-14T01:33:34.173Z,100246.91
2023-05-14T01:34:37.674Z,100243.31
2023-05-14T01:35:39.795Z,100242.66
2023-05-14T01:36:43.341Z,100240.97
2023-05-14T01:37:47.689Z,100242.03
2023-05-14T01:38:51.167Z,100243.94
2023-05-14T01:39:53.438Z,100243.28
2023-05-14T01:40:56.618Z,100241.81
2023-05-14T01:41:59.158Z,100247.28
2023-05-14T01:43:02.048Z,100246.44
2023-05-14T01:44:04.020Z,100242.00
2023-05-14T01:45:07.354Z,100248.34
2023-05-14T01:46:09.121Z,100244.53
2023-05-14T01:47:11.822Z,100251.75
2023-05-14T01:48:13.567Z,100242.41
2023-05-14T01:49:18.106Z,100247.06
2023-05-14T01:50:20.022Z,100249.81
2023-05-14T01:51:22.873Z,100247.91
2023-05-14T01:52:24.690Z,100246.25
2023-05-14T01:53:28.800Z,100241.81
2023-05-14T01:54:30.629Z,100245.59
2023-05-14T01:55:33.265Z,100246.63
2023-05-14T01:56:35.004Z,100244.94
2023-05-14T01:57:37.757Z,100238.81
2023-05-14T01:58:39.502Z,100239.88
2023-05-14T01:59:42.179Z,100242.63
2023-05-14T02:00:43.922Z,100248.09
2023-05-14T02:01:46.647Z,100240.72
2023-05-14T02:02:48.436Z,100239.03
2023-05-14T02:03:53.946Z,100239.88
2023-05-14T02:04:55.731Z,100239.88
2023-05-14T02:05:58.374Z,100239.88
2023-05-14T02:07:00.047Z,100239.88
2023-05-14T02:08:02.821Z,100237.13
2023-05-14T02:09:05.928Z,100239.88
2023-05-14T02:10:09.927Z,100234.38
2023-05-14T02:11:11.652Z,100231.63
2023-05-14T02:12:14.318Z,100235.22
2023-05-14T02:13:16.676Z,100233.53
2023-05-14T02:14:19.376Z,100236.06
2023-05-14T02:15:21.319Z,100229.75
2023-05-14T02:16:24.082Z,100231.44
2023-05-14T02:17:26.461Z,100235.88
2023-05-14T02:18:29.167Z,100234.81
2023-05-14T02:19:30.864Z,100232.06
2023-05-14T02:20:33.491Z,100229.31
2023-05-14T02:21:35.449Z,100227.41
2023-05-14T02:22:38.707Z,100229.13
2023-05-14T02:23:42.058Z,100231.88
2023-05-14T02:24:46.334Z,100230.81
2023-05-14T02:25:48.056Z,100228.91
2023-05-14T02:26:50.708Z,100227.03
2023-05-14T02:27:52.423Z,100229.53
2023-05-14T02:28:55.054Z,100225.75
2023-05-14T02:30:00.659Z,100223.00
2023-05-14T02:31:03.586Z,100222.81
2023-05-14T02:32:05.955Z,100221.09
2023-05-14T02:33:08.800Z,100225.56
2023-05-14T02:34:10.574Z,100227.25
2023-05-14T02:35:13.265Z,100221.75
2023-05-14T02:36:15.607Z,100219.63
2023-05-14T02:37:18.305Z,100223.88
2023-05-14T02:38:20.356Z,100222.81
2023-05-14T02:39:23.021Z,100219.88
2023-05-14T02:40:26.322Z,100225.34
2023-05-14T02:41:29.142Z,100227.06
2023-05-14T02:42:31.137Z,100227.91
2023-05-14T02:43:33.796Z,100232.34
2023-05-14T02:44:35.607Z,100222.41
2023-05-14T02:45:38.262Z,100225.16
2023-05-14T02:46:40.275Z,100225.16
2023-05-14T02:47:43.639Z,100221.38
2023-05-14T02:48:45.453Z,100216.06
2023-05-14T02:49:48.268Z,100220.50
2023-05-14T02:50:51.105Z,100217.78
2023-05-14T02:51:54.877Z,100223.25
2023-05-14T02:52:56.569Z,100222.19
2023-05-14T02:53:59.315Z,100226.63
2023-05-14T02:55:00.995Z,100216.69
2023-05-14T02:56:05.575Z,100221.38
2023-05-14T02:57:07.312Z,100227.69
2023-05-14T02:58:10.476Z,100226.84
2023-05-14T02:59:12.201Z,100227.91
2023-05-14T03:00:15.942Z,100227.91
2023-05-14T03:01:18.835Z,100232.53
2023-05-14T03:02:22.135Z,100228.09
2023-05-14T03:03:24.177Z,100232.75
2023-05-14T03:04:27.273Z,100227.44
2023-05-14T03:05:29.019Z,100228.53
2023-05-14T03:06:31.999Z,100226.84
2023-05-14T03:07:33.786Z,100223.44
2023-05-14T03:08:36.535Z,100223.44
2023-05-14T03:09:38.507Z,100224.72
2023-05-14T03:10:41.234Z,100221.09
2023-05-14T03:11:44.278Z,100214.97
2023-05-14T03:12:47.353Z,100216.03
2023-05-14T03:13:49.066Z,100221.72
2023-05-14T03:14:51.714Z,100221.94
2023-05-14T03:15:55.090Z,100216.00
2023-05-14T03:16:57.876Z,100213.47
2023-05-14T03:17:59.626Z,100211.16
2023-05-14T03:19:02.305Z,100209.44
2023-05-14T03:20:04.820Z,100211.56
2023-05-14T03:21:09.045Z,100215.56
2023-05-14T03:22:10.785Z,100202.25
2023-05-14T03:23:14.809Z,100213.44
2023-05-14T03:24:16.538Z,100214.69
2023-05-14T03:25:19.293Z,100218.47
2023-05-14T03:26:21.674Z,100212.34
2023-05-14T03:27:25.730Z,100210.88
2023-05-14T03:28:27.454Z,100205.56
2023-05-14T03:29:30.498Z,100212.97
2023-05-14T03:30:32.219Z,100213.16
2023-05-14T03:31:35.030Z,100215.06
2023-05-14T03:32:37.457Z,100206.84
2023-05-14T03:33:40.848Z,100214.22
2023-05-14T03:34:42.755Z,100210.63
2023-05-14T03:35:45.430Z,100215.47
2023-05-14T03:36:48.118Z,100214.63
2023-05-14T03:37:49.862Z,100208.50
2023-05-14T03:38:52.561Z,100206.63
2023-05-14T03:39:54.368Z,100209.34
2023-05-14T03:40:57.638Z,100208.50
2023-05-14T03:41:59.372Z,100208.69
2023-05-14T03:43:03.528Z,100206.63
2023-05-14T03:44:06.324Z,100214.00
2023-05-14T03:45:10.445Z,100200.47
2023-05-14T03:46:12.152Z,100203.22
2023-05-14T03:47:14.853Z,100207.66
2023-05-14T03:48:16.651Z,100204.91
2023-05-14T03:49:19.390Z,100212.28
2023-05-14T03:50:21.174Z,100203.03
2023-05-14T03:51:24.032Z,100201.13
2023-05-14T03:52:25.754Z,100212.09
2023-05-14T03:53:28.490Z,100205.53
2023-05-14T03:54:30.206Z,100209.13
2023-05-14T03:55:32.889Z,100208.09
2023-05-14T03:56:34.659Z,100210.63
2023-05-14T03:57:37.719Z,100209.97
2023-05-14T03:58:40.794Z,100212.72
2023-05-14T03:59:43.437Z,100212.72
2023-05-14T04:00:45.164Z,100212.72
2023-05-14T04:01:47.832Z,100209.13
2023-05-14T04:02:49.580Z,100212.72
2023-05-14T04:03:52.595Z,100211.69
2023-05-14T04:04:54.607Z,100213.38
2023-05-14T04:05:57.324Z,100213.38
2023-05-14T04:06:58.970Z,100212.34
2023-05-14T04:08:01.727Z,100211.25
2023-05-14T04:09:03.653Z,100212.09
2023-05-14T04:10:07.480Z,100214.66
2023-05-14T04:11:09.240Z,100214.66
2023-05-14T04:12:11.909Z,100211.72
2023-05-14T04:13:13.646Z,100212.53
2023-05-14T04:14:17.654Z,100217.84
2023-05-14T04:15:19.399Z,100210.44
2023-05-14T04:16:22.137Z,100210.44
2023-05-14T04:17:24.024Z,100214.91
2023-05-14T04:18:26.750Z,100208.34
2023-05-14T04:19:28.503Z,100216.59
2023-05-14T04:20:31.170Z,100208.34
2023-05-14T04:21:32.941Z,100208.34
2023-05-14T04:22:35.653Z,100217.22
2023-05-14T04:23:37.414Z,100218.91
2023-05-14T04:24:40.128Z,100218.72
2023-05-14T04:25:42.098Z,100216.81
2023-05-14T04:26:44.818Z,100215.75
2023-05-14T04:27:46.509Z,100223.78
2023-05-14T04:28:49.270Z,100220.00
2023-05-14T04:29:52.393Z,100225.28
2023-05-14T04:30:55.431Z,100220.44
2023-05-14T04:31:57.183Z,100224.00
2023-05-14T04:32:59.949Z,100228.22
2023-05-14T04:34:01.693Z,100221.69
2023-05-14T04:35:05.176Z,100230.78
2023-05-14T04:36:07.410Z,100226.34
2023-05-14T04:37:10.249Z,100226.34
2023-05-14T04:38:14.041Z,100229.94
2023-05-14T04:39:16.867Z,100229.75
2023-05-14T04:40:19.070Z,100228.88
2023-05-14T04:41:22.064Z,100225.09
2023-05-14T04:42:23.743Z,100226.78
2023-05-14T04:43:26.500Z,100229.31
2023-05-14T04:44:28.187Z,100235.66
2023-05-14T04:45:34.259Z,100231.88
2023-05-14T04:46:36.269Z,100229.13
2023-05-14T04:47:38.937Z,100231.88
2023-05-14T04:48:40.721Z,100229.13
2023-05-14T04:49:43.502Z,100229.97
2023-05-14T04:50:45.293Z,100229.13
2023-05-14T04:51:48.130Z,100227.22
2023-05-14T04:52:49.814Z,100227.22
2023-05-14T04:53:52.514Z,100223.63
2023-05-14T04:54:54.482Z,100226.19
2023-05-14T04:55:57.203Z,100225.09
2023-05-14T04:57:03.198Z,100223.84
2023-05-14T04:58:06.070Z,100230.81
2023-05-14T04:59:07.815Z,100224.72
2023-05-14T05:00:11.826Z,100227.44
2023-05-14T05:01:16.124Z,100228.94
2023-05-14T05:02:17.853Z,100227.69
2023-05-14T05:03:20.766Z,100232.97
2023-05-14T05:04:23.914Z,100231.94
2023-05-14T05:05:26.584Z,100238.28
2023-05-14T05:06:28.354Z,100239.97
2023-05-14T05:07:31.144Z,100230.66
2023-05-14T05:08:32.877Z,100228.75
2023-05-14T05:09:35.780Z,100239.53
2023-05-14T05:10:37.514Z,100234.03
2023-05-14T05:11:40.172Z,100245.03
2023-05-14T05:12:41.998Z,100236.78
2023-05-14T05:13:44.807Z,100236.59
2023-05-14T05:14:46.493Z,100236.59
2023-05-14T05:15:49.288Z,100239.13
2023-05-14T05:16:52.488Z,100234.28
2023-05-14T05:17:55.156Z,100236.81
2023-05-14T05:18:57.076Z,100242.72
2023-05-14T05:19:59.789Z,100241.47
2023-05-14T05:21:01.513Z,100228.19
2023-05-14T05:22:04.340Z,100237.91
2023-05-14T05:23:06.062Z,100232.00
2023-05-14T05:24:08.755Z,100229.91
2023-05-14T05:25:12.109Z,100229.47
2023-05-14T05:26:14.727Z,100235.41
2023-05-14T05:27:16.561Z,100234.97
2023-05-14T05:28:19.221Z,100234.34
2023-05-14T05:29:20.962Z,100233.72
2023-05-14T05:30:23.897Z,100234.13
2023-05-14T05:31:25.723Z,100239.84
2023-05-14T05:32:29.918Z,100236.47
2023-05-14T05:33:31.761Z,100229.47
2023-05-14T05:34:34.592Z,100237.94
2023-05-14T05:35:36.362Z,100230.97
2023-05-14T05:36:39.032Z,100236.69
2023-05-14T05:37:42.298Z,100233.31
2023-05-14T05:38:45.078Z,100234.31
2023-05-14T05:39:48.280Z,100234.53
2023-05-14T05:40:51.084Z,100234.75
2023-05-14T05:41:53.559Z,100234.94
2023-05-14T05:42:56.302Z,100230.69
2023-05-14T05:43:58.041Z,100231.16
2023-05-14T05:45:00.838Z,100238.97
2023-05-14T05:46:02.618Z,100234.09
2023-05-14T05:47:05.822Z,100248.47
2023-05-14T05:48:08.981Z,100242.56
2023-05-14T05:49:11.646Z,100239.56
2023-05-14T05:50:13.581Z,100232.81
2023-05-14T05:51:16.365Z,100233.22
2023-05-14T05:52:18.089Z,100232.78
2023-05-14T05:53:20.838Z,100239.59
2023-05-14T05:54:23.851Z,100241.44
2023-05-14T05:55:26.821Z,100239.94
2023-05-14T05:56:28.504Z,100238.47
2023-05-14T05:57:31.196Z,100245.00
2023-05-14T05:58:33.187Z,100236.72
2023-05-14T05:59:36.171Z,100240.31
2023-05-14T06:00:37.953Z,100240.66
2023-05-14T06:01:43.477Z,100234.94
2023-05-14T06:02:46.487Z,100244.41
2023-05-14T06:03:50.591Z,100243.28
2023-05-14T06:04:53.222Z,100231.09
2023-05-14T06:05:55.963Z,100234.38
2023-05-14T06:06:57.812Z,100234.31
2023-05-14T06:08:00.604Z,100241.63
2023-05-14T06:09:02.305Z,100240.66
2023-05-14T06:10:06.445Z,100227.19
2023-05-14T06:11:08.266Z,100230.91
2023-05-14T06:12:11.214Z,100234.59
2023-05-14T06:13:12.974Z,100232.38
2023-05-14T06:14:15.713Z,100235.75
2023-05-14T06:15:17.470Z,100238.19
2023-05-14T06:16:20.196Z,100238.13
2023-05-14T06:17:22.099Z,100237.19
2023-05-14T06:18:24.865Z,100238.81
2023-05-14T06:19:28.063Z,100241.25
2023-05-14T06:20:30.870Z,100231.81
2023-05-14T06:21:33.566Z,100241.47
2023-05-14T06:22:35.364Z,100237.31
2023-05-14T06:23:38.140Z,100241.44
2023-05-14T06:24:39.854Z,100242.78
2023-05-14T06:25:42.560Z,100239.72
2023-05-14T06:26:44.325Z,100236.66
2023-05-14T06:27:47.025Z,100237.38
2023-05-14T06:28:48.701Z,100243.88
2023-05-14T06:29:51.350Z,100233.81
2023-05-14T06:30:54.040Z,100245.22
2023-05-14T06:32:01.829Z,100237.06
2023-05-14T06:33:03.821Z,100241.41
2023-05-14T06:34:06.654Z,100234.34
2023-05-14T06:35:10.464Z,100235.91
2023-05-14T06:36:13.239Z,100238.56
2023-05-14T06:37:14.981Z,100236.50
2023-05-14T06:38:17.678Z,100238.31
2023-05-14T06:39:19.374Z,100237.38
2023-05-14T06:40:22.488Z,100234.75
2023-05-14T06:41:24.531Z,100228.84
2023-05-14T06:42:27.484Z,100234.50
2023-05-14T06:43:29.214Z,100232.44
2023-05-14T06:44:32.231Z,100230.88
2023-05-14T06:45:33.942Z,100229.91
2023-05-14T06:46:36.601Z,100232.78
2023-05-14T06:47:38.375Z,100228.22
2023-05-14T06:48:41.132Z,100223.88
2023-05-14T06:49:42.816Z,100232.06
2023-05-14T06:50:47.171Z,100231.56
2023-05-14T06:51:48.914Z,100228.28
2023-05-14T06:52:51.580Z,100224.19
2023-05-14T06:53:54.228Z,100231.16
2023-05-14T06:54:56.925Z,100227.66
2023-05-14T06:55:58.620Z,100222.22
2023-05-14T06:57:01.323Z,100230.91
2023-05-14T06:58:04.019Z,100229.56
2023-05-14T06:59:06.769Z,100230.22
2023-05-14T07:00:09.515Z,100233.31
2023-05-14T07:01:12.182Z,100231.16
2023-05-14T07:02:13.902Z,100230.66
2023-05-14T07:03:16.631Z,100229.31
2023-05-14T07:04:18.369Z,100223.53
2023-05-14T07:05:21.028Z,100235.22
2023-05-14T07:06:24.075Z,100232.19
2023-05-14T07:07:26.763Z,100237.25
2023-05-14T07:08:28.450Z,100227.84
2023-05-14T07:09:31.090Z,100231.53
2023-05-14T07:10:33.308Z,100228.00
2023-05-14T07:11:35.998Z,100231.75
2023-05-14T07:12:37.793Z,100231.00
2023-05-14T07:13:40.793Z,100231.34
2023-05-14T07:14:42.530Z,100228.91
2023-05-14T07:15:45.215Z,100220.69
2023-05-14T07:16:47.106Z,100225.25
2023-05-14T07:17:50.212Z,100217.81
2023-05-14T07:18:52.169Z,100217.69
2023-05-14T07:19:56.003Z,100218.84
2023-05-14T07:20:57.820Z,100222.22
2023-05-14T07:22:02.065Z,100218.72
2023-05-14T07:23:03.854Z,100218.22
2023-05-14T07:24:07.267Z,100216.63
2023-05-14T07:25:09.223Z,100212.50
2023-05-14T07:26:11.945Z,100214.53
2023-05-14T07:27:13.701Z,100216.31
2023-05-14T07:28:16.409Z,100216.94
2023-05-14T07:29:18.165Z,100215.34
2023-05-14T07:30:20.967Z,100218.19
2023-05-14T07:31:22.756Z,100206.84
2023-05-14T07:32:25.992Z,100216.59
2023-05-14T07:33:27.759Z,100206.94
2023-05-14T07:34:30.400Z,100207.25
2023-05-14T07:35:32.446Z,100207.56
2023-05-14T07:36:35.287Z,100204.31
2023-05-14T07:37:38.498Z,100204.03
2023-05-14T07:38:41.234Z,100204.63
2023-05-14T07:39:42.927Z,100202.69
2023-05-14T07:40:45.631Z,100196.03
2023-05-14T07:41:47.370Z,100197.38
2023-05-14T07:42:50.028Z,100194.84
2023-05-14T07:43:51.745Z,100200.69
2023-05-14T07:44:54.390Z,100199.00
2023-05-14T07:45:56.604Z,100196.22
2023-05-14T07:46:59.475Z,100202.38
2023-05-14T07:48:01.407Z,100198.47
2023-05-14T07:49:04.316Z,100197.69
2023-05-14T07:50:07.193Z,100194.69
2023-05-14T07:51:09.895Z,100198.38
2023-05-14T07:52:11.621Z,100197.91
2023-05-14T07:53:15.682Z,100190.53
2023-05-14T07:54:17.395Z,100195.06
2023-05-14T07:55:20.422Z,100191.50
2023-05-14T07:56:22.380Z,100201.59
2023-05-14T07:57:25.092Z,100200.53
2023-05-14T07:58:27.809Z,100203.38
2023-05-14T07:59:31.236Z,100198.72
2023-05-14T08:00:32.948Z,100192.66
2023-05-14T08:01:37.718Z,100199.31
2023-05-14T08:02:40.871Z,100192.66
2023-05-14T08:03:43.800Z,100199.63
2023-05-14T08:04:45.623Z,100196.59
2023-05-14T08:05:48.298Z,100192.75
2023-05-14T08:06:49.967Z,100196.72
2023-05-14T08:07:52.652Z,100188.44
2023-05-14T08:08:55.677Z,100191.25
2023-05-14T08:09:58.359Z,100190.47
2023-05-14T08:11:00.249Z,100189.75
2023-05-14T08:12:03.093Z,100188.09
2023-05-14T08:13:04.911Z,100185.38
2023-05-14T08:14:07.644Z,100186.00
2023-05-14T08:15:10.227Z,100182.16
2023-05-14T08:16:12.993Z,100179.16
2023-05-14T08:17:14.787Z,100179.19
2023-05-14T08:18:17.586Z,100185.94
2023-05-14T08:19:19.287Z,100173.66
2023-05-14T08:20:22.665Z,100187.31
2023-05-14T08:21:24.594Z,100179.28
2023-05-14T08:22:27.417Z,100183.78
2023-05-14T08:23:29.127Z,100181.31
2023-05-14T08:24:33.223Z,100181.88
2023-05-14T08:25:35.185Z,100178.84
2023-05-14T08:26:38.848Z,100178.84
2023-05-14T08:27:40.789Z,100171.88
2023-05-14T08:28:44.395Z,100179.19
2023-05-14T08:29:47.187Z,100173.41
2023-05-14T08:30:49.909Z,100179.34
2023-05-14T08:31:51.642Z,100177.72
2023-05-14T08:32:54.378Z,100176.94
2023-05-14T08:33:56.184Z,100174.75
2023-05-14T08:34:59.545Z,100167.25
2023-05-14T08:36:01.600Z,100174.84
2023-05-14T08:37:04.708Z,100168.47
2023-05-14T08:38:06.495Z,100166.81
2023-05-14T08:39:09.321Z,100165.53
2023-05-14T08:40:12.932Z,100169.72
2023-05-14T08:41:16.286Z,100173.09
2023-05-14T08:42:20.984Z,100167.25
2023-05-14T08:43:27.509Z,100165.94
2023-05-14T08:44:33.536Z,100163.69
2023-05-14T08:45:36.723Z,100169.56
2023-05-14T08:46:39.147Z,100163.97
2023-05-14T08:47:41.877Z,100167.88
2023-05-14T08:48:47.529Z,100161.75
2023-05-14T08:49:54.266Z,100163.41
2023-05-14T08:50:56.126Z,100157.81
2023-05-14T08:51:59.102Z,100163.69
2023-05-14T08:53:00.812Z,100156.16
2023-05-14T08:54:04.447Z,100153.09
2023-05-14T08:55:07.945Z,100154.19
2023-05-14T08:56:12.776Z,100157.53
2023-05-14T08:57:15.730Z,100152.78
2023-05-14T08:58:17.464Z,100160.59
2023-05-14T08:59:20.156Z,100156.38
2023-05-14T09:00:23.354Z,100160.28
2023-05-14T09:01:26.819Z,100155.81
2023-05-14T09:02:29.765Z,100148.56
2023-05-14T09:03:32.602Z,100149.69
2023-05-14T09:04:35.019Z,100147.19
2023-05-14T09:05:38.236Z,100150.84
2023-05-14T09:06:40.542Z,100142.47
2023-05-14T09:07:43.296Z,100153.38
2023-05-14T09:08:45.968Z,100146.38
2023-05-14T09:09:48.843Z,100142.50
2023-05-14T09:10:50.569Z,100143.94
2023-05-14T09:11:55.207Z,100136.38
2023-05-14T09:12:57.034Z,100139.19
2023-05-14T09:13:59.785Z,100136.38
2023-05-14T09:15:01.489Z,100135.00
2023-05-14T09:16:04.603Z,100139.44
2023-05-14T09:17:06.395Z,100138.56
2023-05-14T09:18:09.163Z,100139.94
2023-05-14T09:19:11.993Z,100144.94
2023-05-14T09:20:15.908Z,100144.63
2023-05-14T09:21:17.998Z,100140.16
2023-05-14T09:22:21.306Z,100131.25
2023-05-14T09:23:25.856Z,100132.34
2023-05-14T09:24:29.532Z,100134.00
2023-05-14T09:25:32.079Z,100128.13
2023-05-14T09:26:36.229Z,100134.28
2023-05-14T09:27:39.560Z,100126.78
2023-05-14T09:28:42.719Z,100134.06
2023-05-14T09:29:44.404Z,100125.97
2023-05-14T09:30:51.607Z,100131.25
2023-05-14T09:31:55.635Z,100127.69
2023-05-14T09:32:58.451Z,100124.59
2023-05-14T09:34:00.756Z,100127.94
2023-05-14T09:35:11.445Z,100121.47
2023-05-14T09:36:14.148Z,100125.91
2023-05-14T09:37:15.928Z,100119.97
2023-05-14T09:38:18.706Z,100123.84
2023-05-14T09:39:20.454Z,100122.16
2023-05-14T09:40:25.110Z,100123.53
2023-05-14T09:41:27.078Z,100119.91
2023-05-14T09:42:29.739Z,100118.53
2023-05-14T09:43:32.831Z,100119.66
2023-05-14T09:44:36.296Z,100121.88
2023-05-14T09:45:38.089Z,100118.53
2023-05-14T09:46:40.788Z,100123.63
2023-05-14T09:47:42.780Z,100119.72
2023-05-14T09:48:46.639Z,100127.25
2023-05-14T09:49:48.753Z,100121.66
2023-05-14T09:50:52.155Z,100123.31
2023-05-14T09:51:53.903Z,100129.75
2023-05-14T09:52:56.632Z,100133.38
2023-05-14T09:53:58.674Z,100130.88
2023-05-14T09:55:02.096Z,100128.34
2023-05-14T09:56:04.054Z,100123.28
2023-05-14T09:57:07.054Z,100118.28
2023-05-14T09:58:08.750Z,100121.63
2023-05-14T09:59:12.813Z,100124.09
2023-05-14T10:00:16.080Z,100122.72
2023-05-14T10:01:20.120Z,100126.34
2023-05-14T10:02:25.161Z,100121.59
2023-05-14T10:03:28.927Z,100126.06
2023-05-14T10:04:32.774Z,100127.44
2023-05-14T10:05:36.653Z,100134.94
2023-05-14T10:06:39.105Z,100133.25
2023-05-14T10:07:44.076Z,100124.28
2023-05-14T10:08:47.149Z,100126.50
2023-05-14T10:09:50.207Z,100120.91
2023-05-14T10:10:53.255Z,100129.47
2023-05-14T10:11:58.479Z,100126.06
2023-05-14T10:13:04.738Z,100127.72
2023-05-14T10:14:09.189Z,100123.53
2023-05-14T10:15:17.774Z,100127.41
2023-05-14T10:16:25.380Z,100125.47
2023-05-14T10:17:31.222Z,100119.03
2023-05-14T10:18:39.795Z,100121.84
2023-05-14T10:19:41.873Z,100130.19
2023-05-14T10:20:45.518Z,100128.03
2023-05-14T10:21:49.909Z,100118.53
2023-05-14T10:22:52.739Z,100121.63
2023-05-14T10:23:54.448Z,100116.38
2023-05-14T10:24:57.341Z,100122.22
2023-05-14T10:25:59.441Z,100123.34
2023-05-14T10:27:02.236Z,100121.41
2023-05-14T10:28:05.823Z,100125.34
2023-05-14T10:29:08.853Z,100124.81
2023-05-14T10:30:13.129Z,100127.03
2023-05-14T10:31:15.846Z,100125.94
2023-05-14T10:32:20.892Z,100126.78
2023-05-14T10:33:23.567Z,100118.69
2023-05-14T10:34:32.833Z,100125.34
2023-05-14T10:35:54.686Z,100120.91
2023-05-14T10:37:00.405Z,100122.03
2023-05-14T10:38:03.107Z,100121.44
2023-05-14T10:39:05.066Z,100122.03
2023-05-14T10:40:10.113Z,100127.59
2023-05-14T10:41:14.990Z,100127.03
2023-05-14T10:42:18.909Z,100126.78
2023-05-14T10:43:22.318Z,100120.91
2023-05-14T10:44:24.128Z,100121.25
2023-05-14T10:45:28.576Z,100127.94
2023-05-14T10:46:30.878Z,100123.75
2023-05-14T10:47:33.778Z,100122.94
2023-05-14T10:48:37.058Z,100116.56
2023-05-14T10:49:43.912Z,100119.66
2023-05-14T10:50:49.089Z,100119.94
2023-05-14T10:51:53.150Z,100109.66
2023-05-14T10:52:57.124Z,100117.19
2023-05-14T10:54:01.118Z,100117.47
2023-05-14T10:55:07.707Z,100116.94
2023-05-14T10:56:11.738Z,100114.75
2023-05-14T10:57:14.126Z,100115.03
2023-05-14T10:58:17.042Z,100106.13
2023-05-14T10:59:18.812Z,100113.94
2023-05-14T11:00:21.677Z,100111.16
2023-05-14T11:01:24.804Z,100111.41
2023-05-14T11:02:28.680Z,100105.00
2023-05-14T11:03:31.163Z,100110.56
2023-05-14T11:04:34.023Z,100108.63
2023-05-14T11:05:37.551Z,100107.50
2023-05-14T11:06:39.421Z,100112.00
2023-05-14T11:07:43.362Z,100108.94
2023-05-14T11:08:46.402Z,100107.78
2023-05-14T11:09:49.371Z,100101.41
2023-05-14T11:10:52.119Z,100112.25
2023-05-14T11:11:56.840Z,100103.88
2023-05-14T11:12:59.576Z,100099.41
2023-05-14T11:14:01.332Z,100108.63
2023-05-14T11:15:06.050Z,100103.34
2023-05-14T11:16:21.826Z,100101.66
2023-05-14T11:17:29.415Z,100099.69
2023-05-14T11:18:33.568Z,100099.97
2023-05-14T11:19:36.264Z,100102.75
2023-05-14T11:20:39.135Z,100098.00
2023-05-14T11:21:41.313Z,100102.22
2023-05-14T11:22:44.544Z,100098.03
2023-05-14T11:23:46.655Z,100097.19
2023-05-14T11:24:49.603Z,100101.06
2023-05-14T11:25:51.944Z,100091.06
2023-05-14T11:26:55.699Z,100099.97
2023-05-14T11:28:00.781Z,100093.84
2023-05-14T11:29:02.602Z,100092.47
2023-05-14T11:30:06.594Z,100099.44
2023-05-14T11:31:08.274Z,100089.69
2023-05-14T11:32:11.054Z,100097.78
2023-05-14T11:33:15.384Z,100097.50
2023-05-14T11:34:17.214Z,100091.06
2023-05-14T11:35:19.958Z,100088.59
2023-05-14T11:36:22.098Z,100078.25
2023-05-14T11:37:24.821Z,100082.47
2023-05-14T11:38:26.509Z,100085.53
2023-05-14T11:39:29.193Z,100083.03
2023-05-14T11:40:32.003Z,100078.88
2023-05-14T11:41:33.778Z,100083.34
2023-05-14T11:42:37.592Z,100080.53
2023-05-14T11:43:39.405Z,100088.66
2023-05-14T11:44:44.461Z,100085.00
2023-05-14T11:45:50.075Z,100079.94
2023-05-14T11:46:56.543Z,100076.00
2023-05-14T11:47:59.296Z,100070.72
2023-05-14T11:49:04.212Z,100073.47
2023-05-14T11:50:09.382Z,100077.06
2023-05-14T11:51:11.578Z,100078.16
2023-05-14T11:52:15.724Z,100072.53
2023-05-14T11:53:20.011Z,100075.81
2023-05-14T11:54:21.718Z,100068.81
2023-05-14T11:55:24.445Z,100068.78
2023-05-14T11:56:26.143Z,100074.09
2023-05-14T11:57:28.839Z,100071.25
2023-05-14T11:58:32.648Z,100069.81